createdAt,value
2022-10-17T00:03:39.570Z,8.80
2022-10-17T00:08:42.805Z,7.35
2022-10-17T00:13:45.710Z,7.65
2022-10-17T00:18:47.285Z,8.70
2022-10-17T00:23:49.186Z,7.40
2022-10-17T00:28:52.053Z,8.20
2022-10-17T00:33:53.948Z,8.52
2022-10-17T00:38:58.530Z,8.80
2022-10-17T00:44:03.566Z,9.07
2022-10-17T00:49:08.947Z,8.90
2022-10-17T00:54:13.432Z,8.85
2022-10-17T00:59:17.447Z,8.95
2022-10-17T01:04:19.550Z,8.27
2022-10-17T01:09:21.437Z,7.95
2022-10-17T01:14:32.860Z,8.25
2022-10-17T01:19:49.951Z,7.82
2022-10-17T01:25:20.888Z,8.05
2022-10-17T01:30:26.491Z,8.02
2022-10-17T01:35:38.099Z,7.47
2022-10-17T01:40:48.425Z,7.93
2022-10-17T01:45:52.889Z,7.82
2022-10-17T01:51:02.116Z,8.35
2022-10-17T01:56:07.912Z,9.05
2022-10-17T02:01:12.390Z,9.82
2022-10-17T02:06:14.070Z,9.38
2022-10-17T02:11:22.884Z,8.93
2022-10-17T02:16:33.904Z,8.68
2022-10-17T02:21:49.785Z,8.95
2022-10-17T02:26:51.398Z,7.63
2022-10-17T02:32:17.869Z,8.05
2022-10-17T02:37:25.686Z,7.07
2022-10-17T02:42:29.466Z,7.90
2022-10-17T02:47:57.350Z,7.43
2022-10-17T02:53:05.805Z,8.38
2022-10-17T02:58:13.476Z,8.35
2022-10-17T03:03:23.722Z,7.50
2022-10-17T03:08:26.099Z,8.13
2022-10-17T03:13:28.531Z,7.40
2022-10-17T03:18:30.328Z,7.35
2022-10-17T03:23:35.242Z,7.68
2022-10-17T03:28:38.845Z,7.25
2022-10-17T03:33:40.695Z,7.10
2022-10-17T03:38:44.120Z,7.35
2022-10-17T03:43:45.843Z,6.68
2022-10-17T03:48:47.469Z,7.00
2022-10-17T03:53:49.138Z,6.35
2022-10-17T03:58:51.247Z,6.15
2022-10-17T04:03:56.106Z,6.93
2022-10-17T04:08:57.893Z,6.85
2022-10-17T04:14:03.253Z,7.50
2022-10-17T04:19:05.558Z,6.30
2022-10-17T04:24:15.412Z,6.38
2022-10-17T04:29:21.775Z,7.05
2022-10-17T04:34:25.827Z,6.15
2022-10-17T04:39:27.573Z,6.20
2022-10-17T04:44:31.082Z,6.10
2022-10-17T04:49:33.626Z,5.85
2022-10-17T04:54:42.909Z,5.53
2022-10-17T04:59:45.706Z,5.93
2022-10-17T05:04:56.273Z,6.57
2022-10-17T05:09:58.849Z,6.43
2022-10-17T05:15:00.737Z,5.35
2022-10-17T05:20:04.174Z,6.40
2022-10-17T05:25:08.448Z,6.28
2022-10-17T05:30:10.422Z,5.90
2022-10-17T05:35:13.456Z,6.85
2022-10-17T05:40:16.501Z,6.72
2022-10-17T05:45:18.634Z,7.60
2022-10-17T05:50:22.069Z,7.55
2022-10-17T05:55:35.947Z,7.72
2022-10-17T06:00:37.635Z,6.55
2022-10-17T06:05:39.885Z,6.90
2022-10-17T06:10:41.557Z,6.60
2022-10-17T06:15:43.411Z,6.70
2022-10-17T06:20:46.084Z,8.35
2022-10-17T06:25:50.378Z,7.47
2022-10-17T06:30:52.059Z,8.52
2022-10-17T06:35:55.821Z,9.23
2022-10-17T06:41:11.165Z,8.65
2022-10-17T06:46:17.497Z,9.10
2022-10-17T06:51:29.172Z,10.00
2022-10-17T06:56:33.306Z,12.18
2022-10-17T07:02:02.196Z,11.55
2022-10-17T07:07:05.162Z,11.52
2022-10-17T07:12:09.136Z,10.18
2022-10-17T07:17:11.473Z,10.13
2022-10-17T07:22:13.658Z,9.80
2022-10-17T07:27:19.011Z,9.35
2022-10-17T07:32:21.757Z,8.75
2022-10-17T07:37:23.489Z,8.45
2022-10-17T07:42:29.446Z,7.90
2022-10-17T07:47:32.068Z,7.95
2022-10-17T07:52:35.135Z,6.43
2022-10-17T07:57:36.773Z,6.15
2022-10-17T08:02:38.444Z,6.40
2022-10-17T08:07:41.424Z,5.53
2022-10-17T08:12:43.417Z,6.00
2022-10-17T08:17:44.952Z,5.75
2022-10-17T08:22:52.478Z,5.75
2022-10-17T08:27:54.132Z,5.80
2022-10-17T08:32:56.356Z,6.40
2022-10-17T08:38:01.553Z,6.57
2022-10-17T08:43:35.201Z,6.13
2022-10-17T08:48:45.611Z,5.75
2022-10-17T08:53:55.816Z,6.55
2022-10-17T08:58:58.239Z,6.05
2022-10-17T09:04:15.923Z,5.88
2022-10-17T09:09:41.160Z,6.30
2022-10-17T09:15:02.807Z,6.35
2022-10-17T09:20:19.428Z,7.75
2022-10-17T09:25:21.933Z,8.48
2022-10-17T09:30:44.550Z,8.50
2022-10-17T09:35:48.633Z,9.32
2022-10-17T09:41:00.638Z,8.77
2022-10-17T09:46:37.289Z,9.48
2022-10-17T09:51:39.373Z,9.65
2022-10-17T09:57:02.691Z,10.02
2022-10-17T10:02:09.470Z,10.25
2022-10-17T10:07:12.378Z,9.82
2022-10-17T10:12:23.797Z,11.27
2022-10-17T10:17:37.304Z,9.95
2022-10-17T10:22:38.980Z,11.15
2022-10-17T10:27:42.750Z,11.43
2022-10-17T10:32:46.904Z,10.93
2022-10-17T10:37:52.931Z,11.07
2022-10-17T10:43:02.537Z,10.30
2022-10-17T10:48:16.517Z,11.10
2022-10-17T10:53:24.883Z,11.00
2022-10-17T10:58:47.924Z,11.40
2022-10-17T11:03:58.444Z,11.30
2022-10-17T11:09:13.025Z,11.20
2022-10-17T11:14:24.781Z,11.25
2022-10-17T11:19:44.559Z,11.02
2022-10-17T11:25:00.819Z,11.27
2022-10-17T11:30:03.882Z,11.25
2022-10-17T11:35:30.639Z,11.60
2022-10-17T11:40:36.152Z,11.13
2022-10-17T11:45:45.270Z,11.90
2022-10-17T11:56:33.329Z,11.52
2022-10-17T12:02:01.754Z,11.48
2022-10-17T12:07:30.086Z,11.65
2022-10-17T12:12:34.650Z,11.90
2022-10-17T12:17:41.195Z,12.00
2022-10-17T12:23:12.098Z,11.63
2022-10-17T12:28:18.982Z,11.70
2022-10-17T12:33:23.542Z,12.10
2022-10-17T12:38:27.160Z,11.65
2022-10-17T12:43:28.807Z,12.00
2022-10-17T12:48:33.173Z,11.88
2022-10-17T12:53:49.943Z,12.45
2022-10-17T12:58:52.053Z,12.77
2022-10-17T13:03:55.070Z,12.57
2022-10-17T13:09:08.765Z,12.45
2022-10-17T13:14:16.453Z,12.68
2022-10-17T13:19:24.682Z,12.57
2022-10-17T13:24:40.534Z,12.38
2022-10-17T13:29:44.454Z,13.55
2022-10-17T13:34:46.010Z,13.20
2022-10-17T13:40:00.309Z,13.52
2022-10-17T13:45:25.375Z,13.65
2022-10-17T13:50:48.663Z,13.63
2022-10-17T13:56:09.552Z,13.98
2022-10-17T14:01:19.204Z,13.02
2022-10-17T14:06:23.634Z,12.90
2022-10-17T14:11:38.157Z,13.35
2022-10-17T14:16:42.504Z,13.18
2022-10-17T14:21:48.867Z,13.77
2022-10-17T14:26:59.498Z,13.15
2022-10-17T14:32:03.052Z,13.48
2022-10-17T14:37:41.368Z,13.73
2022-10-17T14:42:43.678Z,13.15
2022-10-17T14:47:49.899Z,13.98
2022-10-17T14:53:23.566Z,13.95
2022-10-17T14:58:27.960Z,13.43
2022-10-17T15:03:29.674Z,13.73
2022-10-17T15:08:31.346Z,13.15
2022-10-17T15:13:39.954Z,13.30
2022-10-17T15:18:43.848Z,13.60
2022-10-17T15:23:45.464Z,13.40
2022-10-17T15:28:47.805Z,13.02
2022-10-17T15:33:49.943Z,12.77
2022-10-17T15:38:53.496Z,12.70
2022-10-17T15:43:55.534Z,13.05
2022-10-17T15:49:02.443Z,13.38
2022-10-17T15:54:05.694Z,12.00
2022-10-17T15:59:14.093Z,11.55
2022-10-17T16:04:15.966Z,11.05
2022-10-17T16:09:17.550Z,9.15
2022-10-17T16:14:19.214Z,9.05
2022-10-17T16:19:21.775Z,9.60
2022-10-17T16:24:24.514Z,10.88
2022-10-17T16:29:26.168Z,11.30
2022-10-17T16:34:30.685Z,10.50
2022-10-17T16:39:32.332Z,11.23
2022-10-17T16:44:34.074Z,12.43
2022-10-17T16:49:35.653Z,12.70
2022-10-17T16:54:37.305Z,10.65
2022-10-17T16:59:38.912Z,10.18
2022-10-17T17:04:40.560Z,10.18
2022-10-17T17:09:42.125Z,10.65
2022-10-17T17:14:43.712Z,10.52
2022-10-17T17:19:45.248Z,14.80
2022-10-17T17:24:46.853Z,13.70
2022-10-17T17:29:48.509Z,14.05
2022-10-17T17:34:50.131Z,11.88
2022-10-17T17:39:51.699Z,10.20
2022-10-17T17:44:53.441Z,10.07
2022-10-17T17:49:55.021Z,10.35
2022-10-17T17:54:56.567Z,10.05
2022-10-17T17:59:58.111Z,9.75
2022-10-17T18:04:59.670Z,10.98
2022-10-17T18:10:01.230Z,9.82
2022-10-17T18:15:04.410Z,12.57
2022-10-17T18:20:07.162Z,11.48
2022-10-17T18:25:08.945Z,13.55
2022-10-17T18:30:10.755Z,15.60
2022-10-17T18:35:12.318Z,14.25
2022-10-17T18:40:13.842Z,14.40
2022-10-17T18:45:15.703Z,15.57
2022-10-17T18:50:17.376Z,14.45
2022-10-17T18:55:20.535Z,14.43
2022-10-17T19:00:22.105Z,13.95
2022-10-17T19:05:23.670Z,14.43
2022-10-17T19:10:25.729Z,15.30
2022-10-17T19:15:27.326Z,15.05
2022-10-17T19:20:29.184Z,14.95
2022-10-17T19:25:30.881Z,16.98
2022-10-17T19:30:32.521Z,18.85
2022-10-17T19:35:34.883Z,17.50
2022-10-17T19:40:40.934Z,17.40
2022-10-17T19:45:42.536Z,17.88
2022-10-17T19:50:44.692Z,17.77
2022-10-17T19:55:46.314Z,19.88
2022-10-17T20:00:49.593Z,20.10
2022-10-17T20:05:51.449Z,18.48
2022-10-17T20:10:52.999Z,17.83
2022-10-17T20:15:55.948Z,18.13
2022-10-17T20:21:03.033Z,17.70
2022-10-17T20:26:33.254Z,17.13
2022-10-17T20:31:40.373Z,17.40
2022-10-17T20:36:42.072Z,17.02
2022-10-17T20:41:44.969Z,20.50
2022-10-17T20:47:00.820Z,15.43
2022-10-17T20:52:03.544Z,18.27
2022-10-17T20:57:05.794Z,20.77
2022-10-17T21:02:10.616Z,20.20
2022-10-17T21:07:12.171Z,20.67
2022-10-17T21:12:21.622Z,20.92
2022-10-17T21:17:32.886Z,19.58
2022-10-17T21:22:35.014Z,20.17
2022-10-17T21:27:36.578Z,19.00
2022-10-17T21:32:51.131Z,20.85
2022-10-17T21:37:55.832Z,19.40
2022-10-17T21:42:57.368Z,22.15
2022-10-17T21:48:12.535Z,17.70
2022-10-17T21:53:14.576Z,17.73
2022-10-17T21:58:16.220Z,15.70
2022-10-17T22:03:17.780Z,15.70
2022-10-17T22:08:19.332Z,17.02
2022-10-17T22:13:20.921Z,15.65
2022-10-17T22:18:22.488Z,15.30
2022-10-17T22:23:24.980Z,14.70
2022-10-17T22:28:26.624Z,15.38
2022-10-17T22:33:28.533Z,14.25
2022-10-17T22:38:30.372Z,14.60
2022-10-17T22:43:32.648Z,14.43
2022-10-17T22:48:34.479Z,13.25
2022-10-17T22:53:37.668Z,13.98
2022-10-17T22:58:39.746Z,12.50
2022-10-17T23:03:41.571Z,13.10
2022-10-17T23:08:43.663Z,12.55
2022-10-17T23:13:45.460Z,14.20
2022-10-17T23:18:47.225Z,14.07
2022-10-17T23:23:48.958Z,13.50
2022-10-17T23:28:54.599Z,13.73
2022-10-17T23:33:56.416Z,14.50
2022-10-17T23:38:58.700Z,14.70
2022-10-17T23:44:00.582Z,16.55
2022-10-17T23:49:02.363Z,13.30
2022-10-17T23:54:04.827Z,13.48
2022-10-17T23:59:06.564Z,13.82
